createdAt,value
2022-10-17T00:00:40.134Z,0
2022-10-17T00:01:43.265Z,0
2022-10-17T00:02:45.994Z,0
2022-10-17T00:04:20.759Z,0
2022-10-17T00:05:23.654Z,0
2022-10-17T00:06:26.437Z,0
2022-10-17T00:08:00.838Z,0
2022-10-17T00:09:03.764Z,0
2022-10-17T00:10:06.609Z,0
2022-10-17T00:11:40.994Z,0
2022-10-17T00:12:43.659Z,0
2022-10-17T00:13:46.463Z,0
2022-10-17T00:15:21.008Z,0
2022-10-17T00:16:23.607Z,0
2022-10-17T00:17:26.678Z,0
2022-10-17T00:19:01.432Z,0
2022-10-17T00:20:04.222Z,0
2022-10-17T00:21:07.150Z,0
2022-10-17T00:22:41.731Z,0
2022-10-17T00:23:44.406Z,0
2022-10-17T00:24:47.075Z,0
2022-10-17T00:26:21.413Z,0
2022-10-17T00:27:24.055Z,0
2022-10-17T00:28:26.867Z,0
2022-10-17T00:30:01.772Z,0
2022-10-17T00:31:04.510Z,0
2022-10-17T00:32:07.380Z,0
2022-10-17T00:33:42.476Z,0
2022-10-17T00:34:45.147Z,0
2022-10-17T00:35:47.804Z,0
2022-10-17T00:37:22.184Z,0
2022-10-17T00:38:24.847Z,0
2022-10-17T00:39:27.415Z,0
2022-10-17T00:41:02.074Z,0
2022-10-17T00:42:04.726Z,0
2022-10-17T00:43:07.333Z,0
2022-10-17T00:44:41.837Z,0
2022-10-17T00:45:44.533Z,0
2022-10-17T00:46:47.141Z,0
2022-10-17T00:48:25.548Z,0
2022-10-17T00:49:28.274Z,0
2022-10-17T00:50:30.883Z,0
2022-10-17T00:52:05.462Z,0
2022-10-17T00:53:08.235Z,0
2022-10-17T00:54:10.965Z,0
2022-10-17T00:55:45.573Z,0
2022-10-17T00:56:48.108Z,0
2022-10-17T00:57:50.779Z,0
2022-10-17T00:59:25.436Z,0
2022-10-17T01:00:39.738Z,0
2022-10-17T01:01:42.992Z,0
2022-10-17T01:02:46.461Z,0
2022-10-17T01:04:20.936Z,0
2022-10-17T01:05:23.625Z,0
2022-10-17T01:06:26.341Z,0
2022-10-17T01:08:05.252Z,0
2022-10-17T01:09:08.092Z,0
2022-10-17T01:10:10.956Z,0
2022-10-17T01:11:45.393Z,0
2022-10-17T01:12:48.821Z,0
2022-10-17T01:13:51.595Z,0
2022-10-17T01:15:26.056Z,0
2022-10-17T01:16:29.072Z,0
2022-10-17T01:17:31.690Z,0
2022-10-17T01:19:06.299Z,0
2022-10-17T01:20:08.874Z,0
2022-10-17T01:21:11.530Z,0
2022-10-17T01:22:46.570Z,0
2022-10-17T01:23:49.235Z,0
2022-10-17T01:24:51.986Z,0
2022-10-17T01:26:26.470Z,0
2022-10-17T01:27:29.103Z,0
2022-10-17T01:28:32.244Z,0
2022-10-17T01:30:06.767Z,0
2022-10-17T01:31:09.411Z,0
2022-10-17T01:32:12.199Z,0
2022-10-17T01:33:46.637Z,0
2022-10-17T01:34:49.341Z,0
2022-10-17T01:35:52.088Z,0
2022-10-17T01:37:26.426Z,0
2022-10-17T01:38:28.985Z,0
2022-10-17T01:39:38.322Z,0
2022-10-17T01:41:13.185Z,0
2022-10-17T01:42:15.902Z,0
2022-10-17T01:43:18.609Z,0
2022-10-17T01:44:53.149Z,0
2022-10-17T01:45:55.777Z,0
2022-10-17T01:46:58.706Z,0
2022-10-17T01:48:33.933Z,0
2022-10-17T01:49:36.592Z,0
2022-10-17T01:50:39.252Z,0
2022-10-17T01:52:13.639Z,0
2022-10-17T01:53:16.266Z,0
2022-10-17T01:54:18.942Z,0
2022-10-17T01:55:53.386Z,0
2022-10-17T01:56:56.021Z,0
2022-10-17T01:57:59.284Z,0
2022-10-17T01:59:33.751Z,0
2022-10-17T02:00:40.588Z,0
2022-10-17T02:01:43.843Z,0
2022-10-17T02:02:46.588Z,0
2022-10-17T02:04:21.082Z,0
2022-10-17T02:05:23.804Z,0
2022-10-17T02:06:26.452Z,0
2022-10-17T02:08:01.081Z,0
2022-10-17T02:09:03.861Z,0
2022-10-17T02:10:06.624Z,0
2022-10-17T02:11:41.012Z,0
2022-10-17T02:12:43.628Z,0
2022-10-17T02:13:46.338Z,0
2022-10-17T02:15:20.712Z,0
2022-10-17T02:16:23.421Z,0
2022-10-17T02:17:26.507Z,0
2022-10-17T02:19:01.216Z,0
2022-10-17T02:20:03.889Z,0
2022-10-17T02:21:06.544Z,0
2022-10-17T02:22:40.959Z,0
2022-10-17T02:23:43.780Z,0
2022-10-17T02:24:46.437Z,0
2022-10-17T02:26:21.002Z,0
2022-10-17T02:27:23.660Z,0
2022-10-17T02:28:26.480Z,0
2022-10-17T02:30:01.188Z,0
2022-10-17T02:31:03.984Z,0
2022-10-17T02:32:06.696Z,0
2022-10-17T02:33:41.282Z,0
2022-10-17T02:34:43.977Z,0
2022-10-17T02:35:46.657Z,0
2022-10-17T02:37:21.134Z,0
2022-10-17T02:38:23.807Z,0
2022-10-17T02:39:26.654Z,0
2022-10-17T02:41:00.971Z,0
2022-10-17T02:42:03.754Z,0
2022-10-17T02:43:06.733Z,0
2022-10-17T02:44:41.246Z,0
2022-10-17T02:45:43.898Z,0
2022-10-17T02:46:46.425Z,0
2022-10-17T02:48:21.080Z,0
2022-10-17T02:49:23.708Z,0
2022-10-17T02:50:26.430Z,0
2022-10-17T02:52:00.885Z,0
2022-10-17T02:53:03.758Z,0
2022-10-17T02:54:06.491Z,0
2022-10-17T02:55:41.040Z,0
2022-10-17T02:56:43.811Z,0
2022-10-17T02:57:46.517Z,0
2022-10-17T02:59:20.928Z,0
2022-10-17T03:00:39.931Z,0
2022-10-17T03:01:43.232Z,0
2022-10-17T03:02:46.280Z,0
2022-10-17T03:04:20.772Z,0
2022-10-17T03:05:23.412Z,0
2022-10-17T03:06:26.004Z,0
2022-10-17T03:08:00.703Z,0
2022-10-17T03:09:03.842Z,0
2022-10-17T03:10:06.535Z,0
2022-10-17T03:11:41.007Z,0
2022-10-17T03:12:44.187Z,0
2022-10-17T03:13:51.091Z,0
2022-10-17T03:15:25.522Z,0
2022-10-17T03:16:28.140Z,0
2022-10-17T03:17:30.954Z,0
2022-10-17T03:19:10.603Z,0
2022-10-17T03:20:13.240Z,0
2022-10-17T03:21:15.809Z,0
2022-10-17T03:22:50.955Z,0
2022-10-17T03:23:53.696Z,0
2022-10-17T03:24:56.415Z,0
2022-10-17T03:26:30.950Z,0
2022-10-17T03:27:34.248Z,0
2022-10-17T03:28:37.221Z,0
2022-10-17T03:30:12.330Z,0
2022-10-17T03:31:15.099Z,0
2022-10-17T03:32:17.714Z,0
2022-10-17T03:33:52.114Z,0
2022-10-17T03:34:54.713Z,0
2022-10-17T03:35:57.678Z,0
2022-10-17T03:37:32.580Z,0
2022-10-17T03:38:35.340Z,0
2022-10-17T03:39:37.966Z,0
2022-10-17T03:41:12.370Z,0
2022-10-17T03:42:14.993Z,0
2022-10-17T03:43:18.072Z,0
2022-10-17T03:44:52.555Z,0
2022-10-17T03:45:55.177Z,0
2022-10-17T03:46:57.877Z,0
2022-10-17T03:48:32.633Z,0
2022-10-17T03:49:35.427Z,0
2022-10-17T03:50:38.287Z,0
2022-10-17T03:52:12.630Z,0
2022-10-17T03:53:15.329Z,0
2022-10-17T03:54:17.930Z,0
2022-10-17T03:55:52.414Z,0
2022-10-17T03:58:02.511Z,0
2022-10-17T03:59:36.960Z,0
2022-10-17T04:00:39.659Z,0
2022-10-17T04:01:42.740Z,0
2022-10-17T04:02:45.506Z,0
2022-10-17T04:04:25.626Z,0
2022-10-17T04:06:09.022Z,0
2022-10-17T04:07:11.917Z,0
2022-10-17T04:08:19.206Z,0
2022-10-17T04:09:54.236Z,0
2022-10-17T04:10:56.903Z,0
2022-10-17T04:11:59.833Z,0
2022-10-17T04:13:35.230Z,0
2022-10-17T04:14:37.928Z,0
2022-10-17T04:15:40.805Z,0
2022-10-17T04:17:15.532Z,0
2022-10-17T04:18:18.561Z,0
2022-10-17T04:19:21.188Z,0
2022-10-17T04:20:56.292Z,0
2022-10-17T04:21:59.061Z,0
2022-10-17T04:23:01.985Z,0
2022-10-17T04:24:36.421Z,0
2022-10-17T04:25:42.442Z,0
2022-10-17T04:26:45.101Z,0
2022-10-17T04:28:19.586Z,0
2022-10-17T04:29:22.419Z,0
2022-10-17T04:30:25.391Z,0
2022-10-17T04:32:02.651Z,0
2022-10-17T04:33:05.212Z,0
2022-10-17T04:34:07.837Z,0
2022-10-17T04:35:42.409Z,0
2022-10-17T04:36:45.073Z,0
2022-10-17T04:37:47.822Z,0
2022-10-17T04:39:22.772Z,0
2022-10-17T04:40:25.428Z,0
2022-10-17T04:41:28.165Z,0
2022-10-17T04:43:02.681Z,0
2022-10-17T04:44:10.946Z,0
2022-10-17T04:45:13.600Z,0
2022-10-17T04:46:48.245Z,0
2022-10-17T04:47:51.175Z,0
2022-10-17T04:48:54.145Z,0
2022-10-17T04:50:28.772Z,0
2022-10-17T04:51:37.031Z,0
2022-10-17T04:52:40.078Z,0
2022-10-17T04:54:14.678Z,0
2022-10-17T04:55:17.300Z,0
2022-10-17T04:56:20.134Z,0
2022-10-17T04:57:54.429Z,0
2022-10-17T04:58:57.267Z,0
2022-10-17T04:59:59.973Z,0
2022-10-17T05:00:40.226Z,0
2022-10-17T05:01:43.527Z,0
2022-10-17T05:02:46.543Z,0
2022-10-17T05:04:23.963Z,0
2022-10-17T05:05:27.735Z,0
2022-10-17T05:06:30.457Z,0
2022-10-17T05:08:04.983Z,0
2022-10-17T05:09:07.822Z,0
2022-10-17T05:10:10.548Z,0
2022-10-17T05:11:45.027Z,0
2022-10-17T05:12:48.391Z,0
2022-10-17T05:13:51.204Z,0
2022-10-17T05:15:25.680Z,0
2022-10-17T05:16:28.335Z,0
2022-10-17T05:17:31.216Z,0
2022-10-17T05:19:10.180Z,0
2022-10-17T05:20:13.033Z,0
2022-10-17T05:21:15.728Z,0
2022-10-17T05:22:56.600Z,0
2022-10-17T05:23:59.492Z,0
2022-10-17T05:25:02.328Z,0
2022-10-17T05:26:37.070Z,0
2022-10-17T05:27:39.805Z,0
2022-10-17T05:28:42.901Z,0
2022-10-17T05:30:17.697Z,0
2022-10-17T05:31:20.438Z,0
2022-10-17T05:32:24.321Z,0
2022-10-17T05:33:58.965Z,0
2022-10-17T05:35:01.829Z,0
2022-10-17T05:36:04.591Z,0
2022-10-17T05:37:39.393Z,0
2022-10-17T05:38:42.096Z,0
2022-10-17T05:39:49.155Z,0
2022-10-17T05:41:26.076Z,0
2022-10-17T05:42:29.127Z,0
2022-10-17T05:43:32.051Z,0
2022-10-17T05:45:10.086Z,0
2022-10-17T05:46:12.939Z,0
2022-10-17T05:47:15.740Z,0
2022-10-17T05:48:50.387Z,0
2022-10-17T05:50:14.901Z,0
2022-10-17T05:51:17.791Z,0
2022-10-17T05:52:57.706Z,0
2022-10-17T05:54:00.657Z,0
2022-10-17T05:55:03.334Z,0
2022-10-17T05:56:37.761Z,0
2022-10-17T05:57:40.584Z,0
2022-10-17T05:59:17.868Z,0
2022-10-17T06:00:40.801Z,0
2022-10-17T06:01:43.681Z,0
2022-10-17T06:02:47.043Z,0
2022-10-17T06:04:21.557Z,0
2022-10-17T06:05:24.474Z,0
2022-10-17T06:06:27.210Z,0
2022-10-17T06:08:06.758Z,0
2022-10-17T06:09:09.461Z,0
2022-10-17T06:10:12.330Z,0
2022-10-17T06:11:46.789Z,0
2022-10-17T06:12:50.186Z,0
2022-10-17T06:13:52.969Z,0
2022-10-17T06:15:27.478Z,0
2022-10-17T06:16:30.259Z,0
2022-10-17T06:17:38.499Z,0
2022-10-17T06:19:13.199Z,0
2022-10-17T06:20:15.864Z,0
2022-10-17T06:21:18.540Z,0
2022-10-17T06:22:53.676Z,0
2022-10-17T06:23:56.410Z,0
2022-10-17T06:24:59.069Z,0
2022-10-17T06:26:33.587Z,0
2022-10-17T06:27:39.783Z,0
2022-10-17T06:28:43.048Z,0
2022-10-17T06:30:17.666Z,0
2022-10-17T06:31:20.500Z,0
2022-10-17T06:32:28.262Z,0
2022-10-17T06:34:03.086Z,0
2022-10-17T06:35:05.710Z,0
2022-10-17T06:36:08.457Z,0
2022-10-17T06:37:48.070Z,0
2022-10-17T06:38:50.938Z,0
2022-10-17T06:39:53.853Z,0
2022-10-17T06:41:28.502Z,0
2022-10-17T06:42:31.351Z,0
2022-10-17T06:43:39.268Z,0
2022-10-17T06:45:13.929Z,0
2022-10-17T06:46:17.048Z,0
2022-10-17T06:47:24.851Z,0
2022-10-17T06:48:59.378Z,0
2022-10-17T06:50:02.130Z,0
2022-10-17T06:51:04.800Z,0
2022-10-17T06:52:39.493Z,0
2022-10-17T06:53:42.809Z,0
2022-10-17T06:54:45.626Z,0
2022-10-17T06:56:25.897Z,0
2022-10-17T06:57:28.878Z,0.435
2022-10-17T06:58:31.738Z,0.435
2022-10-17T07:00:40.723Z,0
2022-10-17T07:01:47.571Z,0
2022-10-17T07:02:50.872Z,0
2022-10-17T07:04:25.536Z,0.435
2022-10-17T07:05:28.332Z,0
2022-10-17T07:06:31.113Z,0
2022-10-17T07:08:14.367Z,0.435
2022-10-17T07:09:17.106Z,0
2022-10-17T07:10:19.781Z,0
2022-10-17T07:11:54.152Z,0
2022-10-17T07:12:57.245Z,0
2022-10-17T07:14:06.929Z,0.435
2022-10-17T07:15:41.418Z,0
2022-10-17T07:16:44.184Z,0.435
2022-10-17T07:17:47.809Z,0.435
2022-10-17T07:19:22.221Z,0.435
2022-10-17T07:20:24.962Z,0.435
2022-10-17T07:21:27.652Z,0
2022-10-17T07:23:02.034Z,0
2022-10-17T07:24:05.008Z,0
2022-10-17T07:25:07.831Z,0.435
2022-10-17T07:26:48.005Z,0.435
2022-10-17T07:27:51.428Z,0
2022-10-17T07:28:54.826Z,0.435
2022-10-17T07:30:29.477Z,0
2022-10-17T07:31:32.294Z,0.435
2022-10-17T07:32:35.127Z,0.435
2022-10-17T07:34:09.600Z,0
2022-10-17T07:35:12.519Z,0
2022-10-17T07:36:15.261Z,0
2022-10-17T07:37:50.719Z,0.435
2022-10-17T07:38:53.447Z,0.435
2022-10-17T07:39:56.118Z,0.435
2022-10-17T07:41:37.587Z,0.435
2022-10-17T07:42:40.774Z,0.435
2022-10-17T07:43:43.522Z,0.435
2022-10-17T07:45:18.097Z,0.435
2022-10-17T07:46:20.846Z,0.435
2022-10-17T07:47:23.645Z,0.435
2022-10-17T07:48:58.089Z,0.435
2022-10-17T07:50:00.849Z,0.435
2022-10-17T07:51:03.660Z,0.435
2022-10-17T07:52:38.785Z,0.435
2022-10-17T07:53:43.937Z,0.435
2022-10-17T07:54:49.108Z,0.585
2022-10-17T07:56:23.742Z,0.435
2022-10-17T07:57:26.450Z,0.585
2022-10-17T07:58:29.252Z,0.585
2022-10-17T08:00:40.119Z,0.585
2022-10-17T08:01:44.255Z,0.585
2022-10-17T08:02:47.628Z,0.585
2022-10-17T08:04:22.327Z,0.435
2022-10-17T08:05:24.960Z,0.435
2022-10-17T08:06:27.600Z,0.435
2022-10-17T08:08:32.309Z,0.435
2022-10-17T08:09:35.057Z,0.435
2022-10-17T08:10:37.769Z,0.435
2022-10-17T08:12:12.333Z,0.435
2022-10-17T08:13:15.087Z,0
2022-10-17T08:14:17.722Z,0.435
2022-10-17T08:15:58.922Z,0
2022-10-17T08:17:01.686Z,0.435
2022-10-17T08:18:04.343Z,0.435
2022-10-17T08:19:38.772Z,0.435
2022-10-17T08:20:41.582Z,0
2022-10-17T08:21:44.234Z,0.435
2022-10-17T08:23:18.708Z,0
2022-10-17T08:24:21.314Z,0.435
2022-10-17T08:25:24.047Z,0
2022-10-17T08:27:08.472Z,0.435
2022-10-17T08:28:11.364Z,0
2022-10-17T08:29:14.598Z,0
2022-10-17T08:30:49.103Z,0
2022-10-17T08:31:58.676Z,0
2022-10-17T08:33:04.439Z,0
2022-10-17T08:34:38.922Z,0
2022-10-17T08:35:41.663Z,0
2022-10-17T08:36:44.391Z,0
2022-10-17T08:38:27.955Z,0
2022-10-17T08:39:30.973Z,0
2022-10-17T08:40:33.737Z,0
2022-10-17T08:42:08.287Z,0
2022-10-17T08:43:11.002Z,0
2022-10-17T08:44:13.738Z,0
2022-10-17T08:45:49.442Z,0
2022-10-17T08:46:52.325Z,0
2022-10-17T08:47:55.849Z,0
2022-10-17T08:49:34.612Z,0
2022-10-17T08:50:37.578Z,0
2022-10-17T08:51:40.331Z,0
2022-10-17T08:53:14.817Z,0
2022-10-17T08:54:17.486Z,0
2022-10-17T08:55:20.715Z,0
2022-10-17T08:57:16.868Z,0
2022-10-17T08:58:19.485Z,0
2022-10-17T08:59:22.182Z,0
2022-10-17T09:00:40.582Z,0
2022-10-17T09:01:43.234Z,0
2022-10-17T09:02:46.241Z,0.435
2022-10-17T09:04:21.155Z,0
2022-10-17T09:05:31.153Z,0.435
2022-10-17T09:06:33.855Z,0.435
2022-10-17T09:08:08.241Z,0
2022-10-17T09:09:10.970Z,0.435
2022-10-17T09:10:13.623Z,0
2022-10-17T09:11:48.227Z,0.435
2022-10-17T09:12:51.258Z,0.435
2022-10-17T09:13:54.151Z,0
2022-10-17T09:15:28.776Z,0.435
2022-10-17T09:16:31.702Z,0
2022-10-17T09:17:34.788Z,0
2022-10-17T09:19:09.260Z,0
2022-10-17T09:20:11.960Z,0
2022-10-17T09:21:14.629Z,0
2022-10-17T09:22:49.409Z,0
2022-10-17T09:24:15.447Z,0
2022-10-17T09:25:18.702Z,0
2022-10-17T09:26:53.582Z,0
2022-10-17T09:27:56.738Z,0
2022-10-17T09:29:00.136Z,0
2022-10-17T09:31:12.487Z,0.435
2022-10-17T09:32:15.508Z,0
2022-10-17T09:33:53.770Z,0
2022-10-17T09:35:33.864Z,0.435
2022-10-17T09:36:36.783Z,0.435
2022-10-17T09:37:39.513Z,0.435
2022-10-17T09:39:13.909Z,0.435
2022-10-17T09:40:16.563Z,0
2022-10-17T09:48:01.028Z,0
2022-10-17T09:49:40.365Z,0
2022-10-17T09:50:43.049Z,0
2022-10-17T09:51:54.259Z,0
2022-10-17T09:53:28.961Z,0
2022-10-17T09:54:31.626Z,0
2022-10-17T09:55:34.293Z,0
2022-10-17T09:57:08.850Z,0
2022-10-17T09:58:11.501Z,0
2022-10-17T09:59:19.422Z,0
2022-10-17T10:00:39.809Z,0
2022-10-17T10:01:47.417Z,0
2022-10-17T10:02:51.405Z,0
2022-10-17T10:04:30.233Z,0
2022-10-17T10:05:36.717Z,0
2022-10-17T10:06:39.334Z,0
2022-10-17T10:08:13.769Z,0
2022-10-17T10:09:16.450Z,0
2022-10-17T10:10:19.148Z,0
2022-10-17T10:11:53.720Z,0
2022-10-17T10:12:56.937Z,0
2022-10-17T10:13:59.548Z,0
2022-10-17T10:15:34.072Z,0
2022-10-17T10:16:37.052Z,0
2022-10-17T10:17:39.885Z,0
2022-10-17T10:19:22.504Z,0
2022-10-17T10:20:25.316Z,0.435
2022-10-17T10:21:28.200Z,0
2022-10-17T10:23:04.393Z,0
2022-10-17T10:24:07.058Z,0
2022-10-17T10:25:09.758Z,0.435
2022-10-17T10:26:48.839Z,0.435
2022-10-17T10:27:51.799Z,0.435
2022-10-17T10:28:55.120Z,0.735
2022-10-17T10:30:29.665Z,1.02
2022-10-17T10:31:32.400Z,1.17
2022-10-17T10:32:35.870Z,1.17
2022-10-17T10:34:19.104Z,1.02
2022-10-17T10:35:21.755Z,1.02
2022-10-17T10:36:24.793Z,0.735
2022-10-17T10:37:59.799Z,0.435
2022-10-17T10:39:07.961Z,0.435
2022-10-17T10:40:10.656Z,0.435
2022-10-17T10:41:45.041Z,0.435
2022-10-17T10:42:48.002Z,0.435
2022-10-17T10:43:51.285Z,0.435
2022-10-17T10:45:59.472Z,0.435
2022-10-17T10:47:02.403Z,0.435
2022-10-17T10:48:04.998Z,0.435
2022-10-17T10:49:39.485Z,0
2022-10-17T10:50:46.226Z,0
2022-10-17T10:51:48.936Z,0.435
2022-10-17T10:53:23.704Z,0.435
2022-10-17T10:54:26.657Z,0.435
2022-10-17T10:55:29.423Z,0.435
2022-10-17T10:57:09.317Z,0.435
2022-10-17T10:58:12.055Z,0.435
2022-10-17T10:59:15.056Z,0
2022-10-17T11:00:40.085Z,0.435
2022-10-17T11:01:43.030Z,0.435
2022-10-17T11:02:45.733Z,0.585
2022-10-17T11:04:25.764Z,0.735
2022-10-17T11:05:28.395Z,0.585
2022-10-17T11:06:31.046Z,0.585
2022-10-17T11:08:05.649Z,0.585
2022-10-17T11:09:08.300Z,0.885
2022-10-17T11:10:11.091Z,0.885
2022-10-17T11:11:45.439Z,1.02
2022-10-17T11:12:48.436Z,0.885
2022-10-17T11:13:55.188Z,0.885
2022-10-17T11:15:29.733Z,0.885
2022-10-17T11:16:32.411Z,0.885
2022-10-17T11:17:35.501Z,0.585
2022-10-17T11:19:09.994Z,0.435
2022-10-17T11:20:12.679Z,0.435
2022-10-17T11:21:15.508Z,0.435
2022-10-17T11:22:55.685Z,0.435
2022-10-17T11:23:58.479Z,0.435
2022-10-17T11:25:01.185Z,0
2022-10-17T11:26:35.949Z,0.435
2022-10-17T11:27:38.591Z,0
2022-10-17T11:28:41.562Z,0
2022-10-17T11:30:16.510Z,0.435
2022-10-17T11:31:24.581Z,0
2022-10-17T11:32:27.712Z,0.435
2022-10-17T11:34:02.339Z,0.435
2022-10-17T11:35:05.102Z,0.435
2022-10-17T11:36:10.186Z,0
2022-10-17T11:37:48.481Z,0.435
2022-10-17T11:38:51.925Z,0
2022-10-17T11:39:55.051Z,0.435
2022-10-17T11:41:34.518Z,0.435
2022-10-17T11:42:38.079Z,0.435
2022-10-17T11:43:40.792Z,0.435
2022-10-17T11:45:15.765Z,0.435
2022-10-17T11:46:18.659Z,0.435
2022-10-17T11:47:21.499Z,0.435
2022-10-17T11:48:56.276Z,0.435
2022-10-17T11:53:07.445Z,1.02
2022-10-17T11:54:43.233Z,0.885
2022-10-17T11:55:46.576Z,1.02
2022-10-17T11:56:54.168Z,1.02
2022-10-17T11:59:31.724Z,1.02
2022-10-17T12:00:48.808Z,1.02
2022-10-17T12:01:52.293Z,0.885
2022-10-17T12:02:56.031Z,1.17
2022-10-17T12:04:31.026Z,1.32
2022-10-17T12:05:33.860Z,1.905
2022-10-17T12:06:40.758Z,1.905
2022-10-17T12:08:15.556Z,2.055
2022-10-17T12:09:18.969Z,2.055
2022-10-17T12:10:21.599Z,2.055
2022-10-17T12:11:56.139Z,1.905
2022-10-17T12:12:59.859Z,1.755
2022-10-17T12:14:05.854Z,1.755
2022-10-17T12:15:44.679Z,1.755
2022-10-17T12:16:50.020Z,1.905
2022-10-17T12:17:53.374Z,1.755
2022-10-17T12:19:27.667Z,1.32
2022-10-17T12:20:30.343Z,1.32
2022-10-17T12:21:40.415Z,1.02
2022-10-17T12:23:17.128Z,0.735
2022-10-17T12:24:24.480Z,0.885
2022-10-17T12:25:27.245Z,1.17
2022-10-17T12:27:11.986Z,1.47
2022-10-17T12:28:14.630Z,1.47
2022-10-17T12:29:17.737Z,1.47
2022-10-17T12:30:52.287Z,1.47
2022-10-17T12:32:01.892Z,1.47
2022-10-17T12:33:33.276Z,1.755
2022-10-17T12:35:07.719Z,1.755
2022-10-17T12:36:10.461Z,1.47
2022-10-17T12:37:13.094Z,1.17
2022-10-17T12:38:50.174Z,1.32
2022-10-17T12:39:53.291Z,1.32
2022-10-17T12:41:00.442Z,1.17
2022-10-17T12:42:36.438Z,0.885
2022-10-17T12:43:43.960Z,1.02
2022-10-17T12:44:56.634Z,1.02
2022-10-17T12:46:32.228Z,1.02
2022-10-17T12:47:37.033Z,1.02
2022-10-17T12:48:39.991Z,1.02
2022-10-17T12:50:19.072Z,1.17
2022-10-17T12:51:54.828Z,1.17
2022-10-17T12:52:58.018Z,1.17
2022-10-17T12:54:42.053Z,1.02
2022-10-17T12:55:51.141Z,1.02
2022-10-17T12:56:53.809Z,0.735
2022-10-17T12:58:28.539Z,0.735
2022-10-17T12:59:31.233Z,0.885
2022-10-17T13:00:40.819Z,0.735
2022-10-17T13:01:53.377Z,0.885
2022-10-17T13:02:56.106Z,0.885
2022-10-17T13:04:30.847Z,0.735
2022-10-17T13:05:33.532Z,0.735
2022-10-17T13:06:36.296Z,0.885
2022-10-17T13:08:11.222Z,0.885
2022-10-17T13:09:22.614Z,0.885
2022-10-17T13:10:29.522Z,0.735
2022-10-17T13:12:06.961Z,0.735
2022-10-17T13:13:09.971Z,1.02
2022-10-17T13:14:13.003Z,1.02
2022-10-17T13:15:47.748Z,0.885
2022-10-17T13:16:50.440Z,0.735
2022-10-17T13:17:58.543Z,0.585
2022-10-17T13:19:33.227Z,0.585
2022-10-17T13:20:43.257Z,0.585
2022-10-17T13:21:46.018Z,0.435
2022-10-17T13:23:21.223Z,0.585
2022-10-17T13:24:23.980Z,0.585
2022-10-17T13:25:26.684Z,0.585
2022-10-17T13:27:01.193Z,0.735
2022-10-17T13:28:04.441Z,0.885
2022-10-17T13:30:49.921Z,0.885
2022-10-17T13:31:53.416Z,0.435
2022-10-17T13:32:56.671Z,0.585
2022-10-17T13:34:31.183Z,0.435
2022-10-17T13:36:05.885Z,0.435
2022-10-17T13:37:11.376Z,0.585
2022-10-17T13:38:50.200Z,0.585
2022-10-17T13:41:34.667Z,0.735
2022-10-17T13:42:39.627Z,0.735
2022-10-17T13:44:14.602Z,0.735
2022-10-17T13:45:17.385Z,0.885
2022-10-17T13:46:53.953Z,0.735
2022-10-17T13:48:28.692Z,0.885
2022-10-17T13:49:35.751Z,0.885
2022-10-17T13:51:16.799Z,1.17
2022-10-17T13:52:52.115Z,1.17
2022-10-17T13:53:54.865Z,1.32
2022-10-17T13:54:57.640Z,1.32
2022-10-17T13:57:59.249Z,0.435
2022-10-17T13:59:02.300Z,0.435
2022-10-17T14:00:40.711Z,0.435
2022-10-17T14:01:43.573Z,0.435
2022-10-17T14:02:46.348Z,0.435
2022-10-17T14:05:24.472Z,0.585
2022-10-17T14:06:27.204Z,0.585
2022-10-17T14:07:37.599Z,0.885
2022-10-17T14:09:32.243Z,0.735
2022-10-17T14:10:34.925Z,0.735
2022-10-17T14:11:37.813Z,0.585
2022-10-17T14:13:17.090Z,0
2022-10-17T14:14:20.047Z,0
2022-10-17T14:15:38.299Z,0.435
2022-10-17T14:17:12.956Z,0.585
2022-10-17T14:18:19.401Z,0.585
2022-10-17T14:19:22.224Z,0.885
2022-10-17T14:22:22.533Z,0.885
2022-10-17T14:23:50.201Z,1.02
2022-10-17T14:24:52.896Z,0.885
2022-10-17T14:26:27.310Z,0.885
2022-10-17T14:27:34.334Z,0.735
2022-10-17T14:28:37.520Z,0.585
2022-10-17T14:30:12.540Z,0.735
2022-10-17T14:31:25.033Z,0.885
2022-10-17T14:32:28.051Z,0.735
2022-10-17T14:34:11.902Z,0.435
2022-10-17T14:35:53.401Z,0
2022-10-17T14:36:56.473Z,0.435
2022-10-17T14:38:31.468Z,0
2022-10-17T14:39:39.881Z,0
2022-10-17T14:40:42.588Z,0
2022-10-17T14:42:55.080Z,0
2022-10-17T14:43:57.994Z,0
2022-10-17T14:45:00.667Z,0
2022-10-17T14:46:37.920Z,0
2022-10-17T14:48:11.652Z,0.435
2022-10-17T14:49:14.578Z,0.585
2022-10-17T14:50:52.312Z,0.585
2022-10-17T14:52:30.756Z,0.585
2022-10-17T14:53:33.761Z,0.585
2022-10-17T14:55:13.531Z,0.585
2022-10-17T14:56:16.498Z,0.585
2022-10-17T14:57:19.345Z,0.435
2022-10-17T14:58:53.893Z,0.585
2022-10-17T15:00:39.474Z,0.585
2022-10-17T15:01:42.195Z,0.735
2022-10-17T15:02:45.771Z,0.585
2022-10-17T15:04:20.489Z,0.735
2022-10-17T15:05:29.764Z,0.585
2022-10-17T15:06:32.702Z,0.585
2022-10-17T15:08:07.436Z,0.585
2022-10-17T15:09:11.335Z,0.585
2022-10-17T15:10:14.066Z,0.435
2022-10-17T15:11:48.463Z,0.585
2022-10-17T15:13:39.948Z,0.435
2022-10-17T15:14:44.963Z,0.435
2022-10-17T15:16:19.978Z,0.435
2022-10-17T15:17:23.106Z,0.435
2022-10-17T15:18:26.235Z,0.435
2022-10-17T15:20:02.203Z,0.435
2022-10-17T15:21:49.070Z,0.435
2022-10-17T15:22:53.029Z,0
2022-10-17T15:24:28.592Z,0.435
2022-10-17T15:25:32.431Z,0
2022-10-17T15:26:35.965Z,0.435
2022-10-17T15:28:11.784Z,0.435
2022-10-17T15:29:15.892Z,0.435
2022-10-17T15:30:24.927Z,0.435
2022-10-17T15:32:00.639Z,0
2022-10-17T15:33:03.956Z,0
2022-10-17T15:34:07.410Z,0
2022-10-17T15:35:43.749Z,0
2022-10-17T15:36:47.314Z,0
2022-10-17T15:37:51.569Z,0
2022-10-17T15:39:27.123Z,0
2022-10-17T15:40:30.589Z,0
2022-10-17T15:41:34.327Z,0
2022-10-17T15:43:10.167Z,0
2022-10-17T15:44:13.715Z,0
2022-10-17T15:45:17.520Z,0
2022-10-17T15:46:53.113Z,0
2022-10-17T15:47:57.617Z,0
2022-10-17T15:49:01.273Z,0.435
2022-10-17T15:50:37.347Z,0.435
2022-10-17T15:51:41.087Z,0
2022-10-17T15:52:44.632Z,0
2022-10-17T15:54:20.548Z,0
2022-10-17T15:55:28.685Z,0
2022-10-17T15:56:32.324Z,0
2022-10-17T15:58:07.849Z,0
2022-10-17T15:59:11.674Z,0
2022-10-17T16:00:45.601Z,0
2022-10-17T16:01:49.040Z,0
2022-10-17T16:02:52.421Z,0
2022-10-17T16:04:28.336Z,0
2022-10-17T16:06:10.865Z,0
2022-10-17T16:07:16.907Z,0
2022-10-17T16:08:19.679Z,0
2022-10-17T16:09:54.175Z,0
2022-10-17T16:10:56.857Z,0
2022-10-17T16:11:59.549Z,0
2022-10-17T16:13:34.358Z,0
2022-10-17T16:14:37.302Z,0
2022-10-17T16:15:39.925Z,0
2022-10-17T16:17:14.289Z,0
2022-10-17T16:18:22.680Z,0
2022-10-17T16:19:25.346Z,0
2022-10-17T16:20:59.769Z,0
2022-10-17T16:22:06.341Z,0
2022-10-17T16:23:08.999Z,0
2022-10-17T16:24:43.437Z,0
2022-10-17T16:25:46.157Z,0
2022-10-17T16:26:48.808Z,0
2022-10-17T16:28:23.416Z,0
2022-10-17T16:29:26.549Z,0
2022-10-17T16:30:29.405Z,0
2022-10-17T16:32:03.815Z,0
2022-10-17T16:33:06.484Z,0
2022-10-17T16:34:09.124Z,0
2022-10-17T16:35:48.938Z,0
2022-10-17T16:36:51.740Z,0
2022-10-17T16:37:54.444Z,0
2022-10-17T16:39:29.007Z,0
2022-10-17T16:40:31.645Z,0
2022-10-17T16:41:34.194Z,0
2022-10-17T16:43:12.567Z,0
2022-10-17T16:44:15.191Z,0
2022-10-17T16:45:17.780Z,0
2022-10-17T16:46:52.212Z,0
2022-10-17T16:47:55.081Z,0
2022-10-17T16:48:58.119Z,0
2022-10-17T16:50:32.628Z,0
2022-10-17T16:51:35.339Z,0
2022-10-17T16:52:38.713Z,0
2022-10-17T16:54:13.087Z,0
2022-10-17T16:55:15.706Z,0
2022-10-17T16:56:18.293Z,0
2022-10-17T16:57:52.890Z,0
2022-10-17T16:58:55.541Z,0
2022-10-17T16:59:58.229Z,0
2022-10-17T17:00:40.815Z,0
2022-10-17T17:01:43.724Z,0
2022-10-17T17:02:50.261Z,0
2022-10-17T17:04:24.743Z,0
2022-10-17T17:05:27.379Z,0
2022-10-17T17:06:30.419Z,0
2022-10-17T17:08:06.937Z,0
2022-10-17T17:09:10.719Z,0
2022-10-17T17:10:13.700Z,0
2022-10-17T17:11:48.118Z,0
2022-10-17T17:12:50.799Z,0
2022-10-17T17:13:53.392Z,0
2022-10-17T17:15:27.696Z,0
2022-10-17T17:16:30.281Z,0
2022-10-17T17:18:11.589Z,0
2022-10-17T17:19:46.120Z,0
2022-10-17T17:20:48.748Z,0
2022-10-17T17:21:51.556Z,0
2022-10-17T17:23:30.526Z,0
2022-10-17T17:24:33.412Z,0
2022-10-17T17:25:36.193Z,0
2022-10-17T17:27:14.480Z,0
2022-10-17T17:28:17.209Z,0
2022-10-17T17:29:20.346Z,0
2022-10-17T17:30:54.968Z,0
2022-10-17T17:31:57.767Z,0
2022-10-17T17:33:00.406Z,0
2022-10-17T17:34:40.393Z,0
2022-10-17T17:35:43.667Z,0
2022-10-17T17:36:46.363Z,0
2022-10-17T17:38:20.873Z,0
2022-10-17T17:39:23.650Z,0
2022-10-17T17:40:26.450Z,0
2022-10-17T17:42:05.208Z,0
2022-10-17T17:43:08.110Z,0
2022-10-17T17:44:12.598Z,0
2022-10-17T17:45:50.335Z,0
2022-10-17T17:46:53.000Z,0
2022-10-17T17:47:56.175Z,0
2022-10-17T17:49:30.551Z,0
2022-10-17T17:50:33.331Z,0
2022-10-17T17:51:40.444Z,0
2022-10-17T17:53:14.803Z,0
2022-10-17T17:54:17.506Z,0
2022-10-17T17:55:20.196Z,0
2022-10-17T17:56:54.681Z,0
2022-10-17T17:57:57.427Z,0
2022-10-17T17:59:00.340Z,0
2022-10-17T18:00:39.951Z,0